Terminal Aerodrome Forecast
Issued by NWS Sioux Falls, SD

Home | Current Version | Previous Version | Text Only | Print | Product List | Glossary Off
Versions: 1 2 3 4 5 6 7 8 9 10 11 12 13 14 15 16 17 18

000
FTUS43 KFSD 200538
TAFFSD
TAF
KFSD 200538Z 2006/2106 31017G26KT P6SM VCSH SCT060 OVC080
     FM200700 31009KT P6SM OVC090
     FM200900 28010KT P6SM BKN200
     FM202100 23008KT P6SM SKC
     FM210000 17005KT P6SM SKC=

USA.gov is the U.S. government's official web portal to all federal, state and local government web resources and services.